sensor_id;sensor_type;location;lat;lon;timestamp;P1;durP1;ratioP1;P2;durP2;ratioP2
6173;SDS011;3120;48.796;9.796;2024-03-22T00:01:56;22.75;;;11.30;;
6173;SDS011;3120;48.796;9.796;2024-03-22T00:04:21;19.65;;;10.55;;
6173;SDS011;3120;48.796;9.796;2024-03-22T00:06:47;22.58;;;12.10;;
6173;SDS011;3120;48.796;9.796;2024-03-22T00:09:15;21.83;;;11.55;;
6173;SDS011;3120;48.796;9.796;2024-03-22T00:11:41;20.83;;;10.93;;
6173;SDS011;3120;48.796;9.796;2024-03-22T00:14:08;16.42;;;10.68;;
6173;SDS011;3120;48.796;9.796;2024-03-22T00:16:34;26.30;;;11.60;;
6173;SDS011;3120;48.796;9.796;2024-03-22T00:19:00;24.15;;;12.25;;
6173;SDS011;3120;48.796;9.796;2024-03-22T00:21:26;19.55;;;11.82;;
6173;SDS011;3120;48.796;9.796;2024-03-22T00:23:53;23.10;;;11.13;;
6173;SDS011;3120;48.796;9.796;2024-03-22T00:26:19;21.10;;;11.35;;
6173;SDS011;3120;48.796;9.796;2024-03-22T00:28:44;18.60;;;11.43;;
6173;SDS011;3120;48.796;9.796;2024-03-22T00:31:10;23.08;;;10.15;;
6173;SDS011;3120;48.796;9.796;2024-03-22T00:33:36;16.13;;;9.93;;
6173;SDS011;3120;48.796;9.796;2024-03-22T00:36:01;17.30;;;10.93;;
6173;SDS011;3120;48.796;9.796;2024-03-22T00:38:27;16.75;;;10.50;;
6173;SDS011;3120;48.796;9.796;2024-03-22T00:40:53;22.02;;;11.02;;
6173;SDS011;3120;48.796;9.796;2024-03-22T00:43:19;20.02;;;11.05;;
6173;SDS011;3120;48.796;9.796;2024-03-22T00:45:45;20.90;;;12.02;;
6173;SDS011;3120;48.796;9.796;2024-03-22T00:48:11;21.02;;;11.02;;
6173;SDS011;3120;48.796;9.796;2024-03-22T00:50:36;17.75;;;10.52;;
6173;SDS011;3120;48.796;9.796;2024-03-22T00:53:02;22.55;;;10.80;;
6173;SDS011;3120;48.796;9.796;2024-03-22T00:55:29;21.33;;;12.07;;
6173;SDS011;3120;48.796;9.796;2024-03-22T00:57:54;26.67;;;11.25;;
6173;SDS011;3120;48.796;9.796;2024-03-22T01:00:20;21.33;;;11.07;;
6173;SDS011;3120;48.796;9.796;2024-03-22T01:02:46;26.73;;;12.23;;
6173;SDS011;3120;48.796;9.796;2024-03-22T01:05:11;23.35;;;11.52;;
6173;SDS011;3120;48.796;9.796;2024-03-22T01:07:37;21.88;;;11.65;;
6173;SDS011;3120;48.796;9.796;2024-03-22T01:10:03;21.30;;;11.63;;
6173;SDS011;3120;48.796;9.796;2024-03-22T01:12:29;37.95;;;14.18;;
6173;SDS011;3120;48.796;9.796;2024-03-22T01:14:56;30.35;;;15.32;;
6173;SDS011;3120;48.796;9.796;2024-03-22T01:17:22;24.20;;;13.27;;
6173;SDS011;3120;48.796;9.796;2024-03-22T01:19:48;24.35;;;11.85;;
6173;SDS011;3120;48.796;9.796;2024-03-22T01:22:13;33.72;;;15.50;;
6173;SDS011;3120;48.796;9.796;2024-03-22T01:24:42;22.45;;;11.90;;
6173;SDS011;3120;48.796;9.796;2024-03-22T01:27:08;22.23;;;11.98;;
6173;SDS011;3120;48.796;9.796;2024-03-22T01:29:33;20.63;;;11.73;;
6173;SDS011;3120;48.796;9.796;2024-03-22T01:31:59;21.40;;;12.40;;
6173;SDS011;3120;48.796;9.796;2024-03-22T01:34:24;28.00;;;12.35;;
6173;SDS011;3120;48.796;9.796;2024-03-22T01:36:51;20.33;;;11.80;;
6173;SDS011;3120;48.796;9.796;2024-03-22T01:39:17;23.08;;;11.63;;
6173;SDS011;3120;48.796;9.796;2024-03-22T01:41:46;19.08;;;10.43;;
6173;SDS011;3120;48.796;9.796;2024-03-22T01:44:14;16.55;;;11.32;;
6173;SDS011;3120;48.796;9.796;2024-03-22T01:46:41;23.00;;;11.50;;
6173;SDS011;3120;48.796;9.796;2024-03-22T01:49:08;22.02;;;11.82;;
6173;SDS011;3120;48.796;9.796;2024-03-22T01:51:35;20.35;;;10.75;;
6173;SDS011;3120;48.796;9.796;2024-03-22T01:54:01;20.27;;;10.68;;
6173;SDS011;3120;48.796;9.796;2024-03-22T01:56:28;27.88;;;11.00;;
6173;SDS011;3120;48.796;9.796;2024-03-22T01:58:54;21.17;;;12.07;;
6173;SDS011;3120;48.796;9.796;2024-03-22T02:01:21;22.73;;;11.57;;
6173;SDS011;3120;48.796;9.796;2024-03-22T02:03:46;24.73;;;13.40;;
6173;SDS011;3120;48.796;9.796;2024-03-22T02:06:12;25.05;;;12.15;;
6173;SDS011;3120;48.796;9.796;2024-03-22T02:08:38;24.38;;;11.82;;
6173;SDS011;3120;48.796;9.796;2024-03-22T02:11:06;24.08;;;12.98;;
6173;SDS011;3120;48.796;9.796;2024-03-22T02:13:32;22.85;;;14.05;;
6173;SDS011;3120;48.796;9.796;2024-03-22T02:15:58;29.10;;;13.23;;
6173;SDS011;3120;48.796;9.796;2024-03-22T02:18:24;23.90;;;12.77;;
6173;SDS011;3120;48.796;9.796;2024-03-22T02:20:49;25.48;;;12.77;;
6173;SDS011;3120;48.796;9.796;2024-03-22T02:23:15;25.98;;;13.10;;
6173;SDS011;3120;48.796;9.796;2024-03-22T02:25:40;23.20;;;12.30;;
6173;SDS011;3120;48.796;9.796;2024-03-22T02:28:06;21.10;;;11.93;;
6173;SDS011;3120;48.796;9.796;2024-03-22T02:30:31;24.70;;;12.10;;
6173;SDS011;3120;48.796;9.796;2024-03-22T02:32:57;20.70;;;12.80;;
6173;SDS011;3120;48.796;9.796;2024-03-22T02:35:22;19.83;;;11.13;;
6173;SDS011;3120;48.796;9.796;2024-03-22T02:37:48;21.75;;;11.65;;
6173;SDS011;3120;48.796;9.796;2024-03-22T02:40:13;24.30;;;11.98;;
6173;SDS011;3120;48.796;9.796;2024-03-22T02:42:39;21.58;;;11.90;;
6173;SDS011;3120;48.796;9.796;2024-03-22T02:45:05;21.25;;;13.32;;
6173;SDS011;3120;48.796;9.796;2024-03-22T02:47:30;24.67;;;13.05;;
6173;SDS011;3120;48.796;9.796;2024-03-22T02:49:56;26.05;;;12.15;;
6173;SDS011;3120;48.796;9.796;2024-03-22T02:52:21;24.23;;;13.10;;
6173;SDS011;3120;48.796;9.796;2024-03-22T02:54:47;25.65;;;13.00;;
6173;SDS011;3120;48.796;9.796;2024-03-22T02:57:13;23.02;;;12.82;;
6173;SDS011;3120;48.796;9.796;2024-03-22T02:59:38;28.20;;;13.20;;
6173;SDS011;3120;48.796;9.796;2024-03-22T03:02:04;21.50;;;12.45;;
6173;SDS011;3120;48.796;9.796;2024-03-22T03:04:29;26.92;;;12.88;;
6173;SDS011;3120;48.796;9.796;2024-03-22T03:06:55;18.30;;;10.85;;
6173;SDS011;3120;48.796;9.796;2024-03-22T03:09:21;22.58;;;11.00;;
6173;SDS011;3120;48.796;9.796;2024-03-22T03:11:46;21.65;;;11.52;;
6173;SDS011;3120;48.796;9.796;2024-03-22T03:14:12;22.20;;;11.18;;
6173;SDS011;3120;48.796;9.796;2024-03-22T03:16:37;17.95;;;10.80;;
6173;SDS011;3120;48.796;9.796;2024-03-22T03:19:03;19.08;;;11.88;;
6173;SDS011;3120;48.796;9.796;2024-03-22T03:21:28;20.05;;;11.98;;
6173;SDS011;3120;48.796;9.796;2024-03-22T03:23:54;22.10;;;10.50;;
6173;SDS011;3120;48.796;9.796;2024-03-22T03:26:19;18.15;;;12.18;;
6173;SDS011;3120;48.796;9.796;2024-03-22T03:28:45;21.48;;;11.45;;
6173;SDS011;3120;48.796;9.796;2024-03-22T03:31:10;26.48;;;11.50;;
6173;SDS011;3120;48.796;9.796;2024-03-22T03:33:36;19.23;;;11.35;;
6173;SDS011;3120;48.796;9.796;2024-03-22T03:36:02;19.05;;;11.60;;
6173;SDS011;3120;48.796;9.796;2024-03-22T03:38:27;19.02;;;11.60;;
6173;SDS011;3120;48.796;9.796;2024-03-22T03:40:53;20.88;;;10.98;;
6173;SDS011;3120;48.796;9.796;2024-03-22T03:43:18;19.40;;;11.65;;
6173;SDS011;3120;48.796;9.796;2024-03-22T03:45:44;20.83;;;12.02;;
6173;SDS011;3120;48.796;9.796;2024-03-22T03:48:09;19.95;;;11.32;;
6173;SDS011;3120;48.796;9.796;2024-03-22T03:50:35;25.30;;;11.90;;
6173;SDS011;3120;48.796;9.796;2024-03-22T03:53:00;20.35;;;11.57;;
6173;SDS011;3120;48.796;9.796;2024-03-22T03:55:26;21.98;;;12.32;;
6173;SDS011;3120;48.796;9.796;2024-03-22T03:57:52;18.08;;;11.05;;
6173;SDS011;3120;48.796;9.796;2024-03-22T04:00:21;18.70;;;11.48;;
6173;SDS011;3120;48.796;9.796;2024-03-22T04:02:48;20.15;;;11.52;;
6173;SDS011;3120;48.796;9.796;2024-03-22T04:05:15;20.80;;;11.68;;
6173;SDS011;3120;48.796;9.796;2024-03-22T04:07:40;23.90;;;13.88;;
6173;SDS011;3120;48.796;9.796;2024-03-22T04:10:07;25.10;;;12.75;;
6173;SDS011;3120;48.796;9.796;2024-03-22T04:12:33;22.15;;;12.70;;
6173;SDS011;3120;48.796;9.796;2024-03-22T04:14:59;27.45;;;13.77;;
6173;SDS011;3120;48.796;9.796;2024-03-22T04:17:25;25.15;;;13.35;;
6173;SDS011;3120;48.796;9.796;2024-03-22T04:19:51;29.25;;;13.68;;
6173;SDS011;3120;48.796;9.796;2024-03-22T04:22:17;27.23;;;13.77;;
6173;SDS011;3120;48.796;9.796;2024-03-22T04:24:42;25.23;;;12.57;;
6173;SDS011;3120;48.796;9.796;2024-03-22T04:27:08;25.00;;;13.45;;
6173;SDS011;3120;48.796;9.796;2024-03-22T04:29:34;23.17;;;13.68;;
6173;SDS011;3120;48.796;9.796;2024-03-22T04:31:59;26.88;;;14.38;;
6173;SDS011;3120;48.796;9.796;2024-03-22T04:34:25;25.30;;;13.95;;
6173;SDS011;3120;48.796;9.796;2024-03-22T04:36:50;28.17;;;13.80;;
6173;SDS011;3120;48.796;9.796;2024-03-22T04:39:19;27.10;;;13.68;;
6173;SDS011;3120;48.796;9.796;2024-03-22T04:41:45;23.17;;;12.40;;
6173;SDS011;3120;48.796;9.796;2024-03-22T04:44:10;24.40;;;12.07;;
6173;SDS011;3120;48.796;9.796;2024-03-22T04:46:36;24.05;;;11.52;;
6173;SDS011;3120;48.796;9.796;2024-03-22T04:49:01;23.05;;;12.10;;
6173;SDS011;3120;48.796;9.796;2024-03-22T04:51:27;22.98;;;11.40;;
6173;SDS011;3120;48.796;9.796;2024-03-22T04:53:52;20.77;;;11.15;;
6173;SDS011;3120;48.796;9.796;2024-03-22T04:56:18;23.00;;;11.48;;
6173;SDS011;3120;48.796;9.796;2024-03-22T04:58:44;25.13;;;12.77;;
6173;SDS011;3120;48.796;9.796;2024-03-22T05:01:09;27.50;;;11.98;;
6173;SDS011;3120;48.796;9.796;2024-03-22T05:03:37;23.10;;;12.82;;
6173;SDS011;3120;48.796;9.796;2024-03-22T05:06:03;24.42;;;13.20;;
6173;SDS011;3120;48.796;9.796;2024-03-22T05:08:30;28.98;;;13.30;;
6173;SDS011;3120;48.796;9.796;2024-03-22T05:10:55;22.80;;;12.18;;
6173;SDS011;3120;48.796;9.796;2024-03-22T05:13:21;25.85;;;12.35;;
6173;SDS011;3120;48.796;9.796;2024-03-22T05:15:46;22.75;;;13.15;;
6173;SDS011;3120;48.796;9.796;2024-03-22T05:18:12;25.63;;;14.13;;
6173;SDS011;3120;48.796;9.796;2024-03-22T05:20:37;27.73;;;14.15;;
6173;SDS011;3120;48.796;9.796;2024-03-22T05:23:03;24.30;;;13.02;;
6173;SDS011;3120;48.796;9.796;2024-03-22T05:25:28;26.67;;;12.75;;
6173;SDS011;3120;48.796;9.796;2024-03-22T05:27:54;22.17;;;12.95;;
6173;SDS011;3120;48.796;9.796;2024-03-22T05:30:20;25.58;;;12.82;;
6173;SDS011;3120;48.796;9.796;2024-03-22T05:32:45;22.33;;;12.27;;
6173;SDS011;3120;48.796;9.796;2024-03-22T05:35:11;29.95;;;13.38;;
6173;SDS011;3120;48.796;9.796;2024-03-22T05:37:36;30.73;;;12.23;;
6173;SDS011;3120;48.796;9.796;2024-03-22T05:40:02;21.80;;;12.65;;
6173;SDS011;3120;48.796;9.796;2024-03-22T05:42:31;20.33;;;11.82;;
6173;SDS011;3120;48.796;9.796;2024-03-22T05:44:56;23.55;;;12.65;;
6173;SDS011;3120;48.796;9.796;2024-03-22T05:47:23;25.65;;;12.82;;
6173;SDS011;3120;48.796;9.796;2024-03-22T05:49:48;23.67;;;12.70;;
6173;SDS011;3120;48.796;9.796;2024-03-22T05:52:14;21.30;;;13.20;;
6173;SDS011;3120;48.796;9.796;2024-03-22T05:54:39;24.52;;;13.57;;
6173;SDS011;3120;48.796;9.796;2024-03-22T05:57:05;27.00;;;14.52;;
6173;SDS011;3120;48.796;9.796;2024-03-22T05:59:31;23.38;;;13.90;;
6173;SDS011;3120;48.796;9.796;2024-03-22T06:01:57;21.50;;;12.90;;
6173;SDS011;3120;48.796;9.796;2024-03-22T06:04:23;25.23;;;13.07;;
6173;SDS011;3120;48.796;9.796;2024-03-22T06:06:48;24.75;;;12.80;;
6173;SDS011;3120;48.796;9.796;2024-03-22T06:09:14;37.45;;;15.30;;
6173;SDS011;3120;48.796;9.796;2024-03-22T06:11:48;42.92;;;19.95;;
6173;SDS011;3120;48.796;9.796;2024-03-22T06:14:14;38.17;;;18.48;;
6173;SDS011;3120;48.796;9.796;2024-03-22T06:16:40;29.10;;;14.88;;
6173;SDS011;3120;48.796;9.796;2024-03-22T06:19:06;32.03;;;13.55;;
6173;SDS011;3120;48.796;9.796;2024-03-22T06:21:31;25.77;;;14.25;;
6173;SDS011;3120;48.796;9.796;2024-03-22T06:23:57;31.80;;;14.80;;
6173;SDS011;3120;48.796;9.796;2024-03-22T06:26:22;26.40;;;13.40;;
6173;SDS011;3120;48.796;9.796;2024-03-22T06:28:48;30.75;;;12.77;;
6173;SDS011;3120;48.796;9.796;2024-03-22T06:31:13;22.00;;;12.43;;
6173;SDS011;3120;48.796;9.796;2024-03-22T06:33:39;28.55;;;12.75;;
6173;SDS011;3120;48.796;9.796;2024-03-22T06:36:05;36.55;;;13.48;;
6173;SDS011;3120;48.796;9.796;2024-03-22T06:38:31;30.35;;;13.27;;
6173;SDS011;3120;48.796;9.796;2024-03-22T06:40:57;27.35;;;12.48;;
6173;SDS011;3120;48.796;9.796;2024-03-22T06:43:24;39.55;;;21.05;;
6173;SDS011;3120;48.796;9.796;2024-03-22T06:45:49;53.47;;;27.67;;
6173;SDS011;3120;48.796;9.796;2024-03-22T06:48:15;40.28;;;20.33;;
6173;SDS011;3120;48.796;9.796;2024-03-22T06:50:41;30.02;;;16.88;;
6173;SDS011;3120;48.796;9.796;2024-03-22T06:53:07;29.70;;;15.52;;
6173;SDS011;3120;48.796;9.796;2024-03-22T06:55:34;33.70;;;14.43;;
6173;SDS011;3120;48.796;9.796;2024-03-22T06:58:00;25.02;;;14.77;;
6173;SDS011;3120;48.796;9.796;2024-03-22T07:00:26;28.52;;;15.45;;
6173;SDS011;3120;48.796;9.796;2024-03-22T07:02:51;29.73;;;13.95;;
6173;SDS011;3120;48.796;9.796;2024-03-22T07:05:17;27.65;;;13.68;;
6173;SDS011;3120;48.796;9.796;2024-03-22T07:07:42;26.98;;;14.98;;
6173;SDS011;3120;48.796;9.796;2024-03-22T07:10:08;31.25;;;14.60;;
6173;SDS011;3120;48.796;9.796;2024-03-22T07:12:34;26.58;;;14.48;;
6173;SDS011;3120;48.796;9.796;2024-03-22T07:15:00;24.17;;;15.13;;
6173;SDS011;3120;48.796;9.796;2024-03-22T07:17:27;28.63;;;13.80;;
6173;SDS011;3120;48.796;9.796;2024-03-22T07:19:53;25.40;;;14.27;;
6173;SDS011;3120;48.796;9.796;2024-03-22T07:22:19;24.90;;;14.23;;
6173;SDS011;3120;48.796;9.796;2024-03-22T07:24:45;30.45;;;14.07;;
6173;SDS011;3120;48.796;9.796;2024-03-22T07:27:12;22.55;;;13.10;;
6173;SDS011;3120;48.796;9.796;2024-03-22T07:29:39;26.88;;;13.68;;
6173;SDS011;3120;48.796;9.796;2024-03-22T07:32:04;25.48;;;14.10;;
6173;SDS011;3120;48.796;9.796;2024-03-22T07:34:30;28.17;;;14.63;;
6173;SDS011;3120;48.796;9.796;2024-03-22T07:36:56;25.70;;;14.55;;
6173;SDS011;3120;48.796;9.796;2024-03-22T07:39:22;26.30;;;14.25;;
6173;SDS011;3120;48.796;9.796;2024-03-22T07:41:48;25.60;;;14.73;;
6173;SDS011;3120;48.796;9.796;2024-03-22T07:44:14;31.05;;;14.30;;
6173;SDS011;3120;48.796;9.796;2024-03-22T07:46:42;27.10;;;15.10;;
6173;SDS011;3120;48.796;9.796;2024-03-22T07:49:09;23.35;;;14.00;;
6173;SDS011;3120;48.796;9.796;2024-03-22T07:51:35;26.92;;;14.70;;
6173;SDS011;3120;48.796;9.796;2024-03-22T07:54:00;24.27;;;14.65;;
6173;SDS011;3120;48.796;9.796;2024-03-22T07:56:27;27.23;;;15.07;;
6173;SDS011;3120;48.796;9.796;2024-03-22T07:58:53;26.98;;;14.75;;
6173;SDS011;3120;48.796;9.796;2024-03-22T08:01:18;25.65;;;14.77;;
6173;SDS011;3120;48.796;9.796;2024-03-22T08:03:47;26.80;;;14.25;;
6173;SDS011;3120;48.796;9.796;2024-03-22T08:06:13;21.75;;;13.02;;
6173;SDS011;3120;48.796;9.796;2024-03-22T08:08:39;24.45;;;12.70;;
6173;SDS011;3120;48.796;9.796;2024-03-22T08:11:04;22.70;;;12.35;;
6173;SDS011;3120;48.796;9.796;2024-03-22T08:13:30;20.65;;;11.95;;
6173;SDS011;3120;48.796;9.796;2024-03-22T08:15:55;23.73;;;12.13;;
6173;SDS011;3120;48.796;9.796;2024-03-22T08:18:21;18.33;;;11.38;;
6173;SDS011;3120;48.796;9.796;2024-03-22T08:20:46;22.08;;;11.13;;
6173;SDS011;3120;48.796;9.796;2024-03-22T08:23:12;18.88;;;11.73;;
6173;SDS011;3120;48.796;9.796;2024-03-22T08:25:37;26.13;;;12.40;;
6173;SDS011;3120;48.796;9.796;2024-03-22T08:28:03;21.50;;;10.85;;
6173;SDS011;3120;48.796;9.796;2024-03-22T08:30:29;18.85;;;10.38;;
6173;SDS011;3120;48.796;9.796;2024-03-22T08:32:54;22.55;;;12.02;;
6173;SDS011;3120;48.796;9.796;2024-03-22T08:35:20;17.90;;;10.95;;
6173;SDS011;3120;48.796;9.796;2024-03-22T08:37:46;20.77;;;10.82;;
6173;SDS011;3120;48.796;9.796;2024-03-22T08:40:11;20.55;;;11.90;;
6173;SDS011;3120;48.796;9.796;2024-03-22T08:42:38;21.88;;;10.35;;
6173;SDS011;3120;48.796;9.796;2024-03-22T08:45:05;16.98;;;9.65;;
6173;SDS011;3120;48.796;9.796;2024-03-22T08:47:31;18.38;;;10.57;;
6173;SDS011;3120;48.796;9.796;2024-03-22T08:49:58;16.42;;;9.43;;
6173;SDS011;3120;48.796;9.796;2024-03-22T08:52:24;17.05;;;9.52;;
6173;SDS011;3120;48.796;9.796;2024-03-22T08:54:50;17.17;;;10.20;;
6173;SDS011;3120;48.796;9.796;2024-03-22T08:57:17;16.30;;;8.98;;
6173;SDS011;3120;48.796;9.796;2024-03-22T08:59:42;23.05;;;10.13;;
6173;SDS011;3120;48.796;9.796;2024-03-22T09:02:08;15.32;;;8.80;;
6173;SDS011;3120;48.796;9.796;2024-03-22T09:04:34;15.77;;;9.52;;
6173;SDS011;3120;48.796;9.796;2024-03-22T09:06:59;13.55;;;8.90;;
6173;SDS011;3120;48.796;9.796;2024-03-22T09:09:25;13.68;;;9.15;;
6173;SDS011;3120;48.796;9.796;2024-03-22T09:11:50;15.35;;;10.20;;
6173;SDS011;3120;48.796;9.796;2024-03-22T09:14:16;14.32;;;8.00;;
6173;SDS011;3120;48.796;9.796;2024-03-22T09:16:42;24.08;;;9.10;;
6173;SDS011;3120;48.796;9.796;2024-03-22T09:19:07;14.75;;;9.23;;
6173;SDS011;3120;48.796;9.796;2024-03-22T09:21:33;12.23;;;7.00;;
6173;SDS011;3120;48.796;9.796;2024-03-22T09:23:59;17.63;;;8.90;;
6173;SDS011;3120;48.796;9.796;2024-03-22T09:26:24;15.63;;;8.50;;
6173;SDS011;3120;48.796;9.796;2024-03-22T09:28:50;13.70;;;6.97;;
6173;SDS011;3120;48.796;9.796;2024-03-22T09:31:16;14.90;;;8.38;;
6173;SDS011;3120;48.796;9.796;2024-03-22T09:33:42;14.07;;;7.43;;
6173;SDS011;3120;48.796;9.796;2024-03-22T09:36:08;11.23;;;7.53;;
6173;SDS011;3120;48.796;9.796;2024-03-22T09:38:34;18.52;;;7.78;;
6173;SDS011;3120;48.796;9.796;2024-03-22T09:40:59;13.95;;;7.65;;
6173;SDS011;3120;48.796;9.796;2024-03-22T09:43:26;12.23;;;7.10;;
6173;SDS011;3120;48.796;9.796;2024-03-22T09:45:52;19.98;;;7.43;;
6173;SDS011;3120;48.796;9.796;2024-03-22T09:48:20;11.70;;;7.55;;
6173;SDS011;3120;48.796;9.796;2024-03-22T09:50:46;13.10;;;8.18;;
6173;SDS011;3120;48.796;9.796;2024-03-22T09:53:13;15.98;;;7.80;;
6173;SDS011;3120;48.796;9.796;2024-03-22T09:55:42;12.23;;;7.47;;
6173;SDS011;3120;48.796;9.796;2024-03-22T09:58:10;15.45;;;7.60;;
6173;SDS011;3120;48.796;9.796;2024-03-22T10:00:36;15.38;;;7.43;;
6173;SDS011;3120;48.796;9.796;2024-03-22T10:03:01;15.98;;;6.72;;
6173;SDS011;3120;48.796;9.796;2024-03-22T10:05:29;9.05;;;5.10;;
6173;SDS011;3120;48.796;9.796;2024-03-22T10:07:54;12.07;;;5.47;;
6173;SDS011;3120;48.796;9.796;2024-03-22T10:10:20;13.85;;;6.53;;
6173;SDS011;3120;48.796;9.796;2024-03-22T10:12:46;17.13;;;5.90;;
6173;SDS011;3120;48.796;9.796;2024-03-22T10:15:12;10.25;;;6.57;;
6173;SDS011;3120;48.796;9.796;2024-03-22T10:17:38;13.32;;;6.72;;
6173;SDS011;3120;48.796;9.796;2024-03-22T10:20:04;13.43;;;6.25;;
6173;SDS011;3120;48.796;9.796;2024-03-22T10:22:37;8.10;;;5.13;;
6173;SDS011;3120;48.796;9.796;2024-03-22T10:25:04;11.77;;;5.60;;
6173;SDS011;3120;48.796;9.796;2024-03-22T10:27:31;13.05;;;5.63;;
6173;SDS011;3120;48.796;9.796;2024-03-22T10:29:57;11.65;;;5.25;;
6173;SDS011;3120;48.796;9.796;2024-03-22T10:32:23;7.57;;;5.30;;
6173;SDS011;3120;48.796;9.796;2024-03-22T10:34:49;8.30;;;5.63;;
6173;SDS011;3120;48.796;9.796;2024-03-22T10:37:15;10.02;;;5.70;;
6173;SDS011;3120;48.796;9.796;2024-03-22T10:39:42;11.75;;;5.45;;
6173;SDS011;3120;48.796;9.796;2024-03-22T10:42:09;13.40;;;5.40;;
6173;SDS011;3120;48.796;9.796;2024-03-22T10:44:37;7.38;;;4.13;;
6173;SDS011;3120;48.796;9.796;2024-03-22T10:47:03;8.88;;;4.03;;
6173;SDS011;3120;48.796;9.796;2024-03-22T10:49:30;8.32;;;4.32;;
6173;SDS011;3120;48.796;9.796;2024-03-22T10:52:02;10.05;;;4.05;;
6173;SDS011;3120;48.796;9.796;2024-03-22T10:54:40;8.02;;;3.63;;
6173;SDS011;3120;48.796;9.796;2024-03-22T10:57:11;7.50;;;4.07;;
6173;SDS011;3120;48.796;9.796;2024-03-22T10:59:40;11.05;;;4.15;;
6173;SDS011;3120;48.796;9.796;2024-03-22T11:02:06;7.55;;;4.10;;
6173;SDS011;3120;48.796;9.796;2024-03-22T11:04:35;11.07;;;4.20;;
6173;SDS011;3120;48.796;9.796;2024-03-22T11:07:00;8.45;;;3.60;;
6173;SDS011;3120;48.796;9.796;2024-03-22T11:09:28;12.07;;;4.43;;
6173;SDS011;3120;48.796;9.796;2024-03-22T11:11:55;8.68;;;3.88;;
6173;SDS011;3120;48.796;9.796;2024-03-22T11:14:22;7.50;;;3.78;;
6173;SDS011;3120;48.796;9.796;2024-03-22T11:16:49;7.40;;;3.45;;
6173;SDS011;3120;48.796;9.796;2024-03-22T11:19:15;8.40;;;3.58;;
6173;SDS011;3120;48.796;9.796;2024-03-22T11:21:41;9.82;;;3.80;;
6173;SDS011;3120;48.796;9.796;2024-03-22T11:24:07;11.75;;;4.18;;
6173;SDS011;3120;48.796;9.796;2024-03-22T11:26:33;6.22;;;4.03;;
6173;SDS011;3120;48.796;9.796;2024-03-22T11:28:59;8.68;;;4.13;;
6173;SDS011;3120;48.796;9.796;2024-03-22T11:31:25;8.40;;;4.00;;
6173;SDS011;3120;48.796;9.796;2024-03-22T11:33:54;6.65;;;3.33;;
6173;SDS011;3120;48.796;9.796;2024-03-22T11:36:21;12.52;;;3.60;;
6173;SDS011;3120;48.796;9.796;2024-03-22T11:38:49;7.68;;;3.78;;
6173;SDS011;3120;48.796;9.796;2024-03-22T11:41:18;11.32;;;4.45;;
6173;SDS011;3120;48.796;9.796;2024-03-22T11:43:47;17.17;;;4.20;;
6173;SDS011;3120;48.796;9.796;2024-03-22T11:46:14;10.75;;;4.32;;
6173;SDS011;3120;48.796;9.796;2024-03-22T11:48:41;6.53;;;3.53;;
6173;SDS011;3120;48.796;9.796;2024-03-22T11:51:07;14.50;;;4.15;;
6173;SDS011;3120;48.796;9.796;2024-03-22T11:53:34;8.95;;;4.22;;
6173;SDS011;3120;48.796;9.796;2024-03-22T11:56:00;4.97;;;3.40;;
6173;SDS011;3120;48.796;9.796;2024-03-22T11:58:28;11.32;;;4.68;;
6173;SDS011;3120;48.796;9.796;2024-03-22T12:00:55;10.52;;;4.30;;
6173;SDS011;3120;48.796;9.796;2024-03-22T12:03:21;9.30;;;3.83;;
6173;SDS011;3120;48.796;9.796;2024-03-22T12:05:47;6.97;;;3.75;;
6173;SDS011;3120;48.796;9.796;2024-03-22T12:08:15;8.13;;;3.90;;
6173;SDS011;3120;48.796;9.796;2024-03-22T12:10:42;8.35;;;3.70;;
6173;SDS011;3120;48.796;9.796;2024-03-22T12:13:08;6.10;;;3.63;;
6173;SDS011;3120;48.796;9.796;2024-03-22T12:15:34;7.20;;;3.45;;
6173;SDS011;3120;48.796;9.796;2024-03-22T12:18:00;7.07;;;3.38;;
6173;SDS011;3120;48.796;9.796;2024-03-22T12:20:25;7.35;;;3.53;;
6173;SDS011;3120;48.796;9.796;2024-03-22T12:22:52;7.60;;;3.90;;
6173;SDS011;3120;48.796;9.796;2024-03-22T12:25:17;6.03;;;3.88;;
6173;SDS011;3120;48.796;9.796;2024-03-22T12:27:43;10.82;;;4.18;;
6173;SDS011;3120;48.796;9.796;2024-03-22T12:30:09;7.80;;;3.70;;
6173;SDS011;3120;48.796;9.796;2024-03-22T12:32:36;7.15;;;4.05;;
6173;SDS011;3120;48.796;9.796;2024-03-22T12:35:01;5.85;;;3.78;;
6173;SDS011;3120;48.796;9.796;2024-03-22T12:37:27;6.50;;;3.67;;
6173;SDS011;3120;48.796;9.796;2024-03-22T12:39:53;10.70;;;4.03;;
6173;SDS011;3120;48.796;9.796;2024-03-22T12:42:19;6.03;;;3.88;;
6173;SDS011;3120;48.796;9.796;2024-03-22T12:44:45;5.80;;;3.80;;
6173;SDS011;3120;48.796;9.796;2024-03-22T12:47:11;9.35;;;3.60;;
6173;SDS011;3120;48.796;9.796;2024-03-22T12:49:36;10.07;;;3.40;;
6173;SDS011;3120;48.796;9.796;2024-03-22T12:52:02;9.82;;;3.42;;
6173;SDS011;3120;48.796;9.796;2024-03-22T12:54:28;5.43;;;3.40;;
6173;SDS011;3120;48.796;9.796;2024-03-22T12:56:54;7.22;;;2.92;;
6173;SDS011;3120;48.796;9.796;2024-03-22T12:59:20;6.80;;;3.17;;
6173;SDS011;3120;48.796;9.796;2024-03-22T13:01:45;7.68;;;3.88;;
6173;SDS011;3120;48.796;9.796;2024-03-22T13:04:11;7.72;;;3.63;;
6173;SDS011;3120;48.796;9.796;2024-03-22T13:06:37;11.35;;;3.42;;
6173;SDS011;3120;48.796;9.796;2024-03-22T13:09:03;7.53;;;3.72;;
6173;SDS011;3120;48.796;9.796;2024-03-22T13:11:29;9.30;;;3.78;;
6173;SDS011;3120;48.796;9.796;2024-03-22T13:13:56;9.32;;;3.63;;
6173;SDS011;3120;48.796;9.796;2024-03-22T13:16:22;8.23;;;3.63;;
6173;SDS011;3120;48.796;9.796;2024-03-22T13:18:48;9.70;;;3.78;;
6173;SDS011;3120;48.796;9.796;2024-03-22T13:21:14;6.78;;;3.85;;
6173;SDS011;3120;48.796;9.796;2024-03-22T13:23:39;6.75;;;3.42;;
6173;SDS011;3120;48.796;9.796;2024-03-22T13:26:05;8.48;;;3.67;;
6173;SDS011;3120;48.796;9.796;2024-03-22T13:28:31;7.10;;;3.20;;
6173;SDS011;3120;48.796;9.796;2024-03-22T13:31:04;6.72;;;3.30;;
6173;SDS011;3120;48.796;9.796;2024-03-22T13:33:31;7.70;;;3.28;;
6173;SDS011;3120;48.796;9.796;2024-03-22T13:35:58;4.70;;;3.35;;
6173;SDS011;3120;48.796;9.796;2024-03-22T13:38:24;5.53;;;2.72;;
6173;SDS011;3120;48.796;9.796;2024-03-22T13:40:56;7.30;;;2.85;;
6173;SDS011;3120;48.796;9.796;2024-03-22T13:43:22;9.52;;;2.50;;
6173;SDS011;3120;48.796;9.796;2024-03-22T13:45:51;6.57;;;3.00;;
6173;SDS011;3120;48.796;9.796;2024-03-22T13:48:21;5.40;;;2.63;;
6173;SDS011;3120;48.796;9.796;2024-03-22T13:50:49;6.13;;;2.83;;
6173;SDS011;3120;48.796;9.796;2024-03-22T13:53:16;11.05;;;2.58;;
6173;SDS011;3120;48.796;9.796;2024-03-22T13:55:42;5.65;;;2.47;;
6173;SDS011;3120;48.796;9.796;2024-03-22T13:58:08;5.80;;;2.47;;
6173;SDS011;3120;48.796;9.796;2024-03-22T14:00:33;5.88;;;2.63;;
6173;SDS011;3120;48.796;9.796;2024-03-22T14:02:59;7.40;;;2.42;;
6173;SDS011;3120;48.796;9.796;2024-03-22T14:05:24;9.43;;;2.30;;
6173;SDS011;3120;48.796;9.796;2024-03-22T14:07:51;7.55;;;3.05;;
6173;SDS011;3120;48.796;9.796;2024-03-22T14:10:17;8.85;;;3.22;;
6173;SDS011;3120;48.796;9.796;2024-03-22T14:12:43;5.78;;;2.40;;
6173;SDS011;3120;48.796;9.796;2024-03-22T14:15:10;6.88;;;3.13;;
6173;SDS011;3120;48.796;9.796;2024-03-22T14:17:36;8.60;;;3.00;;
6173;SDS011;3120;48.796;9.796;2024-03-22T14:20:01;10.98;;;3.17;;
6173;SDS011;3120;48.796;9.796;2024-03-22T14:22:33;9.55;;;3.30;;
6173;SDS011;3120;48.796;9.796;2024-03-22T14:24:59;7.13;;;3.08;;
6173;SDS011;3120;48.796;9.796;2024-03-22T14:27:24;8.77;;;2.92;;
6173;SDS011;3120;48.796;9.796;2024-03-22T14:29:50;7.70;;;2.58;;
6173;SDS011;3120;48.796;9.796;2024-03-22T14:32:17;11.10;;;3.30;;
6173;SDS011;3120;48.796;9.796;2024-03-22T14:34:42;5.88;;;2.63;;
6173;SDS011;3120;48.796;9.796;2024-03-22T14:37:08;10.95;;;2.63;;
6173;SDS011;3120;48.796;9.796;2024-03-22T14:39:33;7.55;;;2.85;;
6173;SDS011;3120;48.796;9.796;2024-03-22T14:41:59;6.10;;;2.97;;
6173;SDS011;3120;48.796;9.796;2024-03-22T14:44:24;3.20;;;2.13;;
6173;SDS011;3120;48.796;9.796;2024-03-22T14:46:50;7.55;;;2.83;;
6173;SDS011;3120;48.796;9.796;2024-03-22T14:49:15;7.35;;;2.40;;